Time;durP1;ratioP1;P1;durP2;ratioP2;P2;SDS_P1;SDS_P2;PMS_P1;PMS_P2;Temp;Humidity;BMP_temperature;BMP_pressure;BME280_temperature;BME280_humidity;BME280_pressure;Samples;Min_cycle;Max_cycle;Signal;HPM_P1;HPM_P2
2024/04/07 00:01:52;;;;;;;12.13;4.10;;;16.90;60.40;;;;;;4053528;29;20562;-76
2024/04/07 00:03:53;;;;;;;8.77;4.32;;;16.80;62.20;;;;;;4053378;29;20056;-75
2024/04/07 00:05:55;;;;;;;6.55;3.92;;;16.90;62.00;;;;;;4050275;29;20104;-76
2024/04/07 00:07:56;;;;;;;8.10;4.00;;;17.00;62.30;;;;;;4038091;29;20049;-76
2024/04/07 00:09:58;;;;;;;8.73;4.07;;;17.10;62.60;;;;;;4037949;29;20053;-77
2024/04/07 00:12:01;;;;;;;6.75;3.90;;;17.10;61.60;;;;;;4037873;29;20049;-76
2024/04/07 00:14:03;;;;;;;6.10;3.65;;;17.10;62.00;;;;;;4037803;29;20045;-76
2024/04/07 00:16:04;;;;;;;8.32;3.88;;;17.20;62.20;;;;;;4044088;29;20112;-76
2024/04/07 00:18:07;;;;;;;8.40;3.17;;;17.20;62.60;;;;;;4053377;29;20148;-75
2024/04/07 00:20:08;;;;;;;9.25;3.80;;;17.10;62.90;;;;;;4053295;29;20124;-75
2024/04/07 00:22:10;;;;;;;7.05;3.13;;;17.10;62.50;;;;;;4053175;29;20063;-74
2024/04/07 00:24:11;;;;;;;7.25;3.45;;;17.10;61.90;;;;;;4053331;29;20459;-75
2024/04/07 00:26:13;;;;;;;9.10;3.80;;;17.10;62.50;;;;;;4049664;29;20041;-74
2024/04/07 00:28:15;;;;;;;8.85;3.88;;;17.00;62.80;;;;;;4037773;29;20053;-74
2024/04/07 00:30:17;;;;;;;7.20;3.85;;;17.00;63.00;;;;;;4037814;29;20049;-74
2024/04/07 00:32:18;;;;;;;8.13;3.83;;;17.00;63.60;;;;;;4037713;29;20056;-75
2024/04/07 00:34:21;;;;;;;8.80;3.55;;;17.00;63.80;;;;;;4037708;29;20453;-75
2024/04/07 00:36:22;;;;;;;6.47;3.20;;;17.00;64.10;;;;;;4037791;29;20056;-75
2024/04/07 00:38:23;;;;;;;8.35;3.78;;;17.00;64.10;;;;;;4039682;29;20060;-76
2024/04/07 00:40:25;;;;;;;7.10;3.88;;;17.00;64.60;;;;;;4049861;29;20081;-75
2024/04/07 00:42:26;;;;;;;6.55;3.47;;;16.90;64.70;;;;;;4052675;29;20053;-75
2024/04/07 00:44:29;;;;;;;9.13;3.97;;;16.90;64.80;;;;;;4037760;29;20049;-74
2024/04/07 00:46:30;;;;;;;8.93;3.97;;;16.90;65.00;;;;;;4052327;29;20116;-75
2024/04/07 00:48:32;;;;;;;6.35;3.70;;;16.80;65.50;;;;;;4053106;29;20447;-75
2024/04/07 00:50:35;;;;;;;7.53;3.90;;;16.70;66.00;;;;;;4053135;29;20091;-74
2024/04/07 00:52:38;;;;;;;6.28;3.80;;;16.60;65.80;;;;;;4052570;29;20077;-75
2024/04/07 00:54:41;;;;;;;7.85;3.92;;;16.50;66.00;;;;;;4053065;29;20049;-74
2024/04/07 00:56:43;;;;;;;6.13;3.65;;;16.50;66.50;;;;;;4044333;29;20053;-74
2024/04/07 00:58:44;;;;;;;7.72;4.00;;;16.50;66.80;;;;;;4053247;29;20068;-74
2024/04/07 01:00:47;;;;;;;10.00;4.28;;;16.50;66.80;;;;;;4046749;29;20057;-75
2024/04/07 01:02:48;;;;;;;6.55;3.63;;;16.50;66.60;;;;;;4039507;29;20049;-75
2024/04/07 01:04:50;;;;;;;5.93;3.63;;;16.50;66.70;;;;;;4040667;29;20452;-74
2024/04/07 01:06:52;;;;;;;7.43;3.75;;;16.50;67.00;;;;;;4041759;29;20060;-75
2024/04/07 01:08:55;;;;;;;8.48;3.83;;;16.50;67.40;;;;;;4052245;29;20611;-74
2024/04/07 01:10:56;;;;;;;7.72;3.75;;;16.50;67.80;;;;;;4056305;29;20074;-74
2024/04/07 01:12:57;;;;;;;7.93;3.80;;;16.50;68.00;;;;;;4055870;29;20044;-74
2024/04/07 01:14:58;;;;;;;8.35;3.78;;;16.50;68.30;;;;;;4056168;29;20148;-75
2024/04/07 01:17:01;;;;;;;8.57;3.42;;;16.50;68.80;;;;;;4055148;29;20048;-74
2024/04/07 01:19:02;;;;;;;7.60;3.47;;;16.50;68.80;;;;;;4053146;29;20131;-74
2024/04/07 01:21:04;;;;;;;8.43;3.55;;;16.40;69.20;;;;;;4043544;29;20052;-75
2024/04/07 01:23:05;;;;;;;8.13;3.58;;;16.40;69.20;;;;;;4055620;29;20116;-74
2024/04/07 01:25:09;;;;;;;7.70;3.70;;;16.10;69.60;;;;;;4055838;29;20442;-74
2024/04/07 01:27:10;;;;;;;7.40;3.55;;;16.00;70.30;;;;;;4040218;29;20060;-75
2024/04/07 01:29:12;;;;;;;7.75;3.92;;;16.00;70.20;;;;;;4040288;29;20136;-75
2024/04/07 01:31:12;;;;;;;12.00;3.75;;;16.00;70.10;;;;;;4040228;29;20096;-75
2024/04/07 01:33:14;;;;;;;8.88;4.45;;;15.80;70.90;;;;;;4040075;29;20056;-75
2024/04/07 01:35:15;;;;;;;7.95;3.63;;;15.70;71.10;;;;;;4040265;29;20060;-74
2024/04/07 01:37:17;;;;;;;5.75;3.78;;;15.40;72.50;;;;;;4040181;29;20092;-74
2024/04/07 01:39:18;;;;;;;6.75;3.70;;;15.20;72.10;;;;;;4040180;29;20104;-74
2024/04/07 01:41:21;;;;;;;7.78;4.10;;;15.10;70.90;;;;;;4050384;29;20093;-75
2024/04/07 01:43:22;;;;;;;7.90;3.78;;;15.10;70.90;;;;;;4055636;29;20104;-74
2024/04/07 01:45:24;;;;;;;9.38;4.28;;;15.00;70.70;;;;;;4043392;29;20049;-75
2024/04/07 01:47:25;;;;;;;7.85;4.28;;;15.10;72.70;;;;;;4055575;29;20072;-75
2024/04/07 01:49:27;;;;;;;8.68;4.30;;;15.20;72.50;;;;;;4055456;29;20096;-75
2024/04/07 01:51:28;;;;;;;7.05;4.22;;;15.30;73.00;;;;;;4055570;29;20045;-74
2024/04/07 01:53:30;;;;;;;5.68;3.53;;;15.20;72.80;;;;;;4055552;29;20478;-75
2024/04/07 01:55:31;;;;;;;9.00;4.07;;;15.20;72.40;;;;;;4052896;29;20740;-75
2024/04/07 01:57:34;;;;;;;6.38;3.60;;;15.30;72.10;;;;;;4040024;29;20096;-75
2024/04/07 01:59:35;;;;;;;6.07;3.30;;;15.30;71.90;;;;;;4039966;29;20049;-74
2024/04/07 02:01:37;;;;;;;12.10;3.90;;;15.30;72.10;;;;;;4039845;29;20185;-75
2024/04/07 02:03:38;;;;;;;9.73;3.60;;;15.20;71.90;;;;;;4039958;29;20072;-74
2024/04/07 02:05:40;;;;;;;9.15;3.80;;;15.20;72.00;;;;;;4039882;29;20052;-75
2024/04/07 02:07:41;;;;;;;7.57;3.60;;;15.10;72.30;;;;;;4044012;29;20483;-75
2024/04/07 02:09:42;;;;;;;9.40;3.40;;;15.10;72.00;;;;;;4055110;29;20104;-75
2024/04/07 02:11:43;;;;;;;7.03;3.10;;;15.10;71.40;;;;;;4043489;29;20557;-74
2024/04/07 02:13:47;;;;;;;6.53;3.08;;;15.10;71.20;;;;;;4039189;29;20128;-74
2024/04/07 02:15:48;;;;;;;5.80;3.17;;;15.20;70.30;;;;;;4039743;29;20056;-75
2024/04/07 02:17:50;;;;;;;7.65;2.67;;;15.30;68.90;;;;;;4049531;29;20131;-75
2024/04/07 02:19:52;;;;;;;7.03;2.42;;;15.30;66.10;;;;;;4055084;29;20242;-74
2024/04/07 02:21:54;;;;;;;4.97;2.30;;;15.40;65.10;;;;;;4055135;29;20084;-75
2024/04/07 02:23:55;;;;;;;4.53;2.30;;;15.50;63.40;;;;;;4055260;29;20490;-75
2024/04/07 02:25:57;;;;;;;5.53;2.33;;;15.60;62.70;;;;;;4054103;29;20092;-74
2024/04/07 02:27:57;;;;;;;5.53;2.40;;;15.70;61.00;;;;;;4054808;29;20135;-76
2024/04/07 02:30:01;;;;;;;4.18;2.22;;;15.70;60.90;;;;;;4055014;29;20471;-74
2024/04/07 02:32:02;;;;;;;4.05;2.00;;;15.80;59.50;;;;;;4054996;29;20057;-74
2024/04/07 02:34:04;;;;;;;5.65;2.10;;;16.00;59.00;;;;;;4054410;29;20052;-76
2024/04/07 02:36:06;;;;;;;7.03;2.30;;;16.00;58.60;;;;;;4040597;29;20073;-76
2024/04/07 02:38:10;;;;;;;5.93;2.28;;;16.10;58.30;;;;;;4039357;29;20072;-76
2024/04/07 02:40:11;;;;;;;4.50;1.92;;;16.10;57.70;;;;;;4039429;29;20131;-76
2024/04/07 02:42:13;;;;;;;6.70;2.40;;;16.20;57.70;;;;;;4039204;29;20053;-76
2024/04/07 02:44:15;;;;;;;5.40;1.90;;;16.20;57.60;;;;;;4039257;29;20109;-76
2024/04/07 02:48:38;;;;;;;4.78;2.20;;;16.30;56.90;;;;;;4054791;29;20055;-76
2024/04/07 02:50:40;;;;;;;4.57;2.30;;;16.40;59.10;;;;;;4054600;29;20509;-76
2024/04/07 02:52:42;;;;;;;4.97;2.20;;;16.40;58.20;;;;;;4054512;29;20057;-76
2024/04/07 02:54:43;;;;;;;5.50;2.28;;;16.40;57.90;;;;;;4054590;29;20543;-76
2024/04/07 02:56:44;;;;;;;7.68;2.25;;;16.40;58.30;;;;;;4050755;29;20100;-76
2024/04/07 02:58:46;;;;;;;5.32;2.00;;;16.40;58.60;;;;;;4039042;29;20424;-76
2024/04/07 03:00:47;;;;;;;3.70;1.88;;;16.40;57.60;;;;;;4049592;29;20041;-76
2024/04/07 03:02:50;;;;;;;5.30;2.00;;;16.40;57.00;;;;;;4054116;29;20116;-76
2024/04/07 03:04:51;;;;;;;3.67;1.90;;;16.20;59.00;;;;;;4054196;29;20053;-73
2024/04/07 03:06:56;;;;;;;4.43;2.10;;;16.30;57.60;;;;;;4054105;29;20052;-76
2024/04/07 03:08:57;;;;;;;5.20;2.10;;;16.40;56.80;;;;;;4054364;29;20055;-75
2024/04/07 03:11:00;;;;;;;7.20;1.70;;;16.50;56.40;;;;;;4049599;29;20473;-76
2024/04/07 03:13:00;;;;;;;3.70;1.83;;;16.50;56.50;;;;;;4038896;29;20510;-76
2024/04/07 03:15:03;;;;;;;5.85;2.00;;;16.50;57.40;;;;;;4038856;29;20049;-76
2024/04/07 03:17:04;;;;;;;3.28;1.83;;;16.50;56.20;;;;;;4038779;29;20045;-75
2024/04/07 03:19:06;;;;;;;5.25;2.10;;;16.60;56.90;;;;;;4039060;29;20140;-75
2024/04/07 03:21:08;;;;;;;4.10;2.00;;;16.50;56.30;;;;;;4038811;29;20116;-75
2024/04/07 03:23:10;;;;;;;5.53;1.90;;;16.60;56.10;;;;;;4038666;29;20053;-75
2024/04/07 03:25:11;;;;;;;3.95;2.08;;;16.60;56.00;;;;;;4043870;29;20075;-75
2024/04/07 03:27:13;;;;;;;6.28;2.47;;;16.50;56.50;;;;;;4052973;29;20487;-75
2024/04/07 03:29:13;;;;;;;5.65;2.20;;;16.50;58.00;;;;;;4054094;29;20550;-75
2024/04/07 03:31:15;;;;;;;4.45;2.13;;;16.40;57.80;;;;;;4054046;29;20057;-74
2024/04/07 03:33:16;;;;;;;7.22;2.40;;;16.30;57.80;;;;;;4053758;29;20064;-75
2024/04/07 03:35:19;;;;;;;4.55;2.10;;;16.40;58.70;;;;;;4052323;29;20108;-74
2024/04/07 03:37:21;;;;;;;7.68;2.10;;;16.40;58.90;;;;;;4038498;29;20384;-74
2024/04/07 03:39:22;;;;;;;4.57;2.25;;;16.40;59.20;;;;;;4038406;29;20089;-74
2024/04/07 03:41:24;;;;;;;5.10;2.15;;;16.40;59.00;;;;;;4047978;29;20049;-75
2024/04/07 03:43:25;;;;;;;5.32;2.42;;;16.40;59.70;;;;;;4053836;29;20053;-75
2024/04/07 03:45:27;;;;;;;5.18;2.47;;;16.30;61.00;;;;;;4053818;29;20109;-75
2024/04/07 03:47:28;;;;;;;4.10;2.40;;;16.20;61.40;;;;;;4053971;29;20498;-76
2024/04/07 03:49:30;;;;;;;6.57;3.10;;;16.10;62.20;;;;;;4053884;29;20077;-75
2024/04/07 03:51:32;;;;;;;7.32;3.20;;;16.10;63.20;;;;;;4053362;29;20048;-76
2024/04/07 03:53:34;;;;;;;5.68;2.75;;;16.00;64.30;;;;;;4053882;29;20088;-75
2024/04/07 03:55:35;;;;;;;6.50;3.25;;;16.00;65.60;;;;;;4053703;29;20056;-75
2024/04/07 03:57:36;;;;;;;6.32;3.20;;;15.90;65.10;;;;;;4044611;29;20112;-76
2024/04/07 03:59:39;;;;;;;5.30;3.10;;;15.90;65.10;;;;;;4038303;29;20045;-76
2024/04/07 04:01:41;;;;;;;5.78;2.95;;;15.90;65.10;;;;;;4038178;29;20052;-76
2024/04/07 04:03:43;;;;;;;6.60;2.72;;;15.80;63.50;;;;;;4049633;29;20486;-75
2024/04/07 04:05:44;;;;;;;7.70;3.08;;;15.90;62.30;;;;;;4053602;29;20056;-75
2024/04/07 04:07:47;;;;;;;6.40;3.00;;;15.90;62.60;;;;;;4053738;29;20060;-75
2024/04/07 04:09:51;;;;;;;5.47;2.90;;;15.90;63.40;;;;;;4053954;29;20053;-75
2024/04/07 04:11:53;;;;;;;6.85;3.03;;;15.80;64.20;;;;;;4053492;29;20096;-75
2024/04/07 04:13:53;;;;;;;6.28;2.92;;;15.90;64.90;;;;;;4052846;29;20455;-74
2024/04/07 04:15:55;;;;;;;7.05;3.00;;;15.90;65.00;;;;;;4053400;29;20044;-75
2024/04/07 04:17:57;;;;;;;7.05;3.22;;;15.80;65.20;;;;;;4050031;29;20049;-74
2024/04/07 04:19:59;;;;;;;6.55;3.30;;;15.80;66.70;;;;;;4037849;29;20084;-75
2024/04/07 04:22:00;;;;;;;9.00;3.63;;;15.80;67.80;;;;;;4037812;29;20101;-75
2024/04/07 04:24:03;;;;;;;5.97;3.80;;;15.80;68.80;;;;;;4037721;29;20053;-75
2024/04/07 04:26:05;;;;;;;6.65;3.40;;;15.70;68.90;;;;;;4053188;29;20487;-75
2024/04/07 04:28:07;;;;;;;6.50;3.63;;;15.60;70.60;;;;;;4053118;29;20418;-75
2024/04/07 04:30:08;;;;;;;8.13;3.80;;;15.50;70.90;;;;;;4044909;29;20049;-75
2024/04/07 04:32:10;;;;;;;7.50;3.70;;;15.50;71.60;;;;;;4037870;29;20045;-76
2024/04/07 04:34:11;;;;;;;8.63;3.83;;;15.40;71.90;;;;;;4037684;29;20065;-76
2024/04/07 04:36:13;;;;;;;8.10;3.78;;;15.30;72.70;;;;;;4037750;29;20415;-75
2024/04/07 04:38:14;;;;;;;6.32;3.47;;;15.30;72.50;;;;;;4037573;29;20475;-76
2024/04/07 04:40:18;;;;;;;8.65;3.63;;;15.20;72.10;;;;;;4037697;29;20064;-75
2024/04/07 04:42:18;;;;;;;6.75;3.60;;;15.10;72.70;;;;;;4037575;29;20411;-75
2024/04/07 04:44:20;;;;;;;7.47;3.08;;;15.00;73.80;;;;;;4041120;29;20135;-75
2024/04/07 04:46:21;;;;;;;4.85;2.45;;;14.90;73.30;;;;;;4050561;29;20044;-75
2024/04/07 04:48:22;;;;;;;6.60;2.97;;;15.00;69.40;;;;;;4037833;29;20140;-75
2024/04/07 04:50:24;;;;;;;9.68;3.40;;;15.00;72.70;;;;;;4037764;29;20547;-75
2024/04/07 04:52:28;;;;;;;7.45;3.15;;;14.90;73.70;;;;;;4037488;29;20105;-75
2024/04/07 04:54:30;;;;;;;5.95;3.47;;;14.80;73.00;;;;;;4037876;29;20084;-75
2024/04/07 04:56:33;;;;;;;7.13;3.28;;;14.90;72.30;;;;;;4037631;29;20118;-76
2024/04/07 04:58:34;;;;;;;6.22;3.00;;;14.80;73.10;;;;;;4049120;29;20049;-75
2024/04/07 05:00:35;;;;;;;4.68;2.72;;;14.90;73.50;;;;;;4048374;29;20104;-76
2024/04/07 05:02:37;;;;;;;5.88;2.67;;;15.00;72.90;;;;;;4037580;29;20443;-77
2024/04/07 05:04:38;;;;;;;7.03;3.10;;;14.90;72.60;;;;;;4047015;29;20081;-76
2024/04/07 05:06:40;;;;;;;6.32;2.60;;;14.70;74.40;;;;;;4042793;29;20463;-75
2024/04/07 05:08:41;;;;;;;4.10;2.15;;;14.70;74.10;;;;;;4042746;29;20065;-75
2024/04/07 05:10:43;;;;;;;5.47;1.80;;;14.80;71.50;;;;;;4053146;29;20511;-77
2024/04/07 05:12:46;;;;;;;5.75;2.70;;;15.00;67.60;;;;;;4039027;29;20491;-76
2024/04/07 05:14:48;;;;;;;4.80;2.08;;;15.00;70.70;;;;;;4045585;29;20478;-76
2024/04/07 05:16:49;;;;;;;6.70;1.75;;;15.10;68.20;;;;;;4052555;29;20093;-76
2024/04/07 05:18:51;;;;;;;4.78;1.88;;;15.20;66.00;;;;;;4044615;29;20082;-76
2024/04/07 05:20:53;;;;;;;4.30;2.03;;;15.30;65.60;;;;;;4044584;29;20080;-75
2024/04/07 05:22:55;;;;;;;6.47;1.92;;;15.40;67.50;;;;;;4036512;29;20088;-76
2024/04/07 05:24:56;;;;;;;5.65;2.25;;;15.50;64.10;;;;;;4047277;29;20498;-75
2024/04/07 05:26:57;;;;;;;6.63;2.35;;;15.50;67.30;;;;;;4052815;29;20045;-76
2024/04/07 05:29:00;;;;;;;12.55;7.85;;;15.50;67.20;;;;;;4051425;29;20052;-76
2024/04/07 05:31:03;;;;;;;5.72;2.40;;;15.60;69.20;;;;;;4044532;29;20056;-76
2024/04/07 05:33:06;;;;;;;13.35;8.48;;;15.60;69.40;;;;;;4035518;29;20491;-76
2024/04/07 05:35:08;;;;;;;5.95;2.60;;;15.60;70.80;;;;;;4037332;29;20045;-76
2024/04/07 05:37:10;;;;;;;5.32;2.70;;;15.50;70.50;;;;;;4036996;29;20049;-76
2024/04/07 05:39:10;;;;;;;6.18;2.88;;;15.40;72.10;;;;;;4036407;29;20492;-76
2024/04/07 05:41:13;;;;;;;5.65;3.00;;;15.20;73.30;;;;;;4037287;29;20049;-75
2024/04/07 05:43:14;;;;;;;4.15;1.85;;;15.00;74.10;;;;;;4037039;29;20128;-76
2024/04/07 05:45:17;;;;;;;5.75;2.40;;;15.00;68.80;;;;;;4037116;29;20092;-76
2024/04/07 05:47:18;;;;;;;4.65;2.00;;;15.10;71.00;;;;;;4031049;29;20072;-75
2024/04/07 05:49:20;;;;;;;13.10;6.32;;;15.20;70.10;;;;;;4036977;29;20045;-76
2024/04/07 05:51:21;;;;;;;6.63;2.67;;;15.30;69.60;;;;;;4040020;29;20053;-76
2024/04/07 05:53:22;;;;;;;7.45;2.50;;;15.20;70.50;;;;;;4040139;29;20466;-75
2024/04/07 05:55:24;;;;;;;4.80;2.42;;;15.20;71.00;;;;;;4040070;29;20060;-75
2024/04/07 05:57:25;;;;;;;8.18;3.00;;;15.10;70.60;;;;;;4035932;29;20544;-76
2024/04/07 05:59:27;;;;;;;5.35;2.60;;;15.10;71.70;;;;;;4027352;29;20057;-76
2024/04/07 06:01:29;;;;;;;5.90;2.90;;;15.00;72.40;;;;;;4032864;29;20041;-75
2024/04/07 06:03:31;;;;;;;5.55;2.60;;;15.00;72.50;;;;;;4039448;29;20412;-75
2024/04/07 06:05:35;;;;;;;5.10;2.55;;;15.00;72.30;;;;;;4038739;29;20563;-75
2024/04/07 06:07:37;;;;;;;5.15;2.47;;;15.10;72.40;;;;;;4039578;29;20268;-75
2024/04/07 06:09:38;;;;;;;6.10;2.03;;;15.10;72.30;;;;;;4039280;29;20072;-75
2024/04/07 06:11:40;;;;;;;20.77;16.67;;;15.10;70.00;;;;;;4038389;29;20049;-75
2024/04/07 06:13:41;;;;;;;6.07;2.58;;;15.20;70.20;;;;;;4039312;29;20045;-72
2024/04/07 06:15:43;;;;;;;6.95;2.85;;;15.30;71.00;;;;;;4038340;29;20049;-73
2024/04/07 06:17:48;;;;;;;6.05;2.53;;;15.30;70.80;;;;;;4039772;29;20440;-76
2024/04/07 06:19:50;;;;;;;81.57;73.60;;;15.40;70.90;;;;;;4036667;29;20045;-75
2024/04/07 06:21:51;;;;;;;7.22;2.95;;;15.40;71.00;;;;;;4039556;29;20064;-75
2024/04/07 06:23:53;;;;;;;5.60;2.70;;;15.40;71.40;;;;;;4039223;29;20053;-75
2024/04/07 06:25:54;;;;;;;7.28;2.85;;;15.40;72.40;;;;;;4027689;29;20480;-75
2024/04/07 06:27:56;;;;;;;5.88;2.95;;;15.30;72.40;;;;;;4025218;29;20050;-74
2024/04/07 06:29:58;;;;;;;5.93;2.72;;;15.00;73.40;;;;;;4025188;29;20052;-74
2024/04/07 06:32:00;;;;;;;5.97;3.00;;;15.00;72.90;;;;;;4030693;29;20049;-74
2024/04/07 06:34:03;;;;;;;7.07;2.92;;;15.10;73.20;;;;;;4030922;29;20493;-74
2024/04/07 06:36:06;;;;;;;7.13;2.90;;;15.10;73.00;;;;;;4027556;29;20061;-74
2024/04/07 06:38:07;;;;;;;5.72;3.50;;;15.10;73.60;;;;;;4029398;29;20105;-74
2024/04/07 06:40:09;;;;;;;5.25;3.17;;;15.20;75.50;;;;;;4032393;29;20049;-75
2024/04/07 06:42:10;;;;;;;6.07;2.97;;;15.30;75.80;;;;;;4033125;29;20523;-75
2024/04/07 06:44:12;;;;;;;6.72;3.13;;;15.40;75.80;;;;;;4028105;29;20048;-75
2024/04/07 06:46:13;;;;;;;6.22;3.08;;;15.40;75.10;;;;;;4037524;29;20041;-75
2024/04/07 06:48:15;;;;;;;7.38;3.22;;;15.40;74.00;;;;;;4032188;29;20108;-75
2024/04/07 06:50:17;;;;;;;6.43;3.05;;;15.30;75.20;;;;;;4026414;29;20106;-75
2024/04/07 06:52:19;;;;;;;8.35;3.90;;;15.30;75.70;;;;;;4024836;29;20119;-76
2024/04/07 06:54:20;;;;;;;6.75;3.00;;;15.40;75.80;;;;;;4031145;29;20456;-75
2024/04/07 06:56:22;;;;;;;5.97;2.60;;;15.50;75.80;;;;;;4028912;29;20053;-75
2024/04/07 06:58:23;;;;;;;5.93;2.92;;;15.50;76.70;;;;;;4026261;29;20088;-75
2024/04/07 07:00:25;;;;;;;7.22;3.13;;;15.50;75.50;;;;;;4024363;29;20049;-75
2024/04/07 07:02:26;;;;;;;6.25;3.25;;;15.60;76.20;;;;;;4032031;29;20057;-75
2024/04/07 07:04:27;;;;;;;7.20;3.28;;;15.70;76.90;;;;;;4029619;29;20127;-75
2024/04/07 07:06:31;;;;;;;6.80;2.88;;;15.70;76.40;;;;;;4032388;29;20061;-75
2024/04/07 07:08:33;;;;;;;6.32;2.92;;;15.80;75.90;;;;;;4035170;29;20081;-76
2024/04/07 07:10:35;;;;;;;5.97;2.95;;;15.70;75.90;;;;;;4032949;29;20539;-76
2024/04/07 07:12:37;;;;;;;5.63;3.25;;;15.70;75.30;;;;;;4034978;29;20407;-77
2024/04/07 07:14:38;;;;;;;6.97;2.78;;;15.80;75.30;;;;;;4035578;29;20045;-76
2024/04/07 07:16:39;;;;;;;6.57;3.00;;;15.80;74.60;;;;;;4030475;29;20056;-76
2024/04/07 07:18:41;;;;;;;6.60;3.03;;;15.90;74.70;;;;;;4033340;29;20045;-75
2024/04/07 07:20:42;;;;;;;6.85;2.90;;;15.90;73.90;;;;;;4032509;29;21011;-76
2024/04/07 07:22:45;;;;;;;6.07;3.10;;;15.90;73.90;;;;;;4028441;29;20045;-75
2024/04/07 07:24:46;;;;;;;7.53;3.05;;;16.00;75.40;;;;;;4031763;29;20093;-76
2024/04/07 07:26:48;;;;;;;5.95;2.53;;;15.90;77.40;;;;;;4025186;29;20057;-75
2024/04/07 07:28:49;;;;;;;7.80;2.90;;;15.90;74.50;;;;;;4024214;29;20474;-76
2024/04/07 07:30:50;;;;;;;8.30;2.72;;;15.90;74.00;;;;;;4028131;29;20045;-75
2024/04/07 07:32:51;;;;;;;7.57;3.17;;;16.00;74.10;;;;;;4032997;29;20172;-76
2024/04/07 07:34:53;;;;;;;6.03;2.70;;;16.10;73.70;;;;;;4030817;29;20105;-75
2024/04/07 07:36:54;;;;;;;6.57;2.90;;;16.10;74.50;;;;;;4029748;29;20096;-75
2024/04/07 07:38:58;;;;;;;8.52;3.00;;;16.20;75.40;;;;;;4033746;29;20057;-75
2024/04/07 07:40:59;;;;;;;6.75;2.90;;;16.20;75.90;;;;;;4025230;29;20143;-75
2024/04/07 07:43:03;;;;;;;7.13;3.70;;;16.20;75.90;;;;;;4031680;29;20076;-75
2024/04/07 07:45:05;;;;;;;4.82;2.90;;;16.30;75.40;;;;;;4035834;29;20448;-76
2024/04/07 07:47:07;;;;;;;7.15;3.50;;;16.40;73.20;;;;;;4030974;29;20049;-75
2024/04/07 07:49:08;;;;;;;13.65;7.05;;;16.40;73.40;;;;;;4038935;29;20148;-76
2024/04/07 07:51:10;;;;;;;6.13;2.88;;;16.40;73.50;;;;;;4038649;29;20056;-76
2024/04/07 07:53:12;;;;;;;7.38;2.47;;;16.50;70.80;;;;;;4034264;29;20109;-75
2024/04/07 07:55:16;;;;;;;4.57;2.15;;;16.50;68.30;;;;;;4035985;29;20076;-75
2024/04/07 07:57:17;;;;;;;5.35;1.90;;;16.70;66.80;;;;;;4037114;29;20049;-74
2024/04/07 07:59:19;;;;;;;6.18;2.35;;;16.70;65.00;;;;;;4034155;29;20165;-75
2024/04/07 08:01:20;;;;;;;4.93;2.00;;;16.80;64.10;;;;;;4027801;29;20053;-75
2024/04/07 08:03:24;;;;;;;4.45;2.00;;;17.00;62.80;;;;;;4031509;29;20105;-74
2024/04/07 08:05:25;;;;;;;7.57;2.47;;;17.10;63.00;;;;;;4028841;29;20053;-75
2024/04/07 08:07:27;;;;;;;5.05;1.83;;;17.20;62.70;;;;;;4032114;29;20053;-75
2024/04/07 08:09:28;;;;;;;5.90;1.95;;;17.30;61.20;;;;;;4029279;29;20105;-74
2024/04/07 08:11:31;;;;;;;5.82;1.80;;;17.40;60.70;;;;;;4023341;29;20484;-75
2024/04/07 08:13:33;;;;;;;7.05;2.15;;;17.50;60.20;;;;;;4023682;29;20685;-75
2024/04/07 08:15:35;;;;;;;5.60;1.77;;;17.60;59.70;;;;;;4026522;29;20514;-73
2024/04/07 08:17:37;;;;;;;7.05;1.92;;;17.70;59.30;;;;;;4028645;29;20849;-74
2024/04/07 08:19:38;;;;;;;6.95;2.13;;;17.80;59.20;;;;;;4026960;29;20052;-75
2024/04/07 08:21:40;;;;;;;8.80;2.00;;;17.90;58.60;;;;;;4022305;29;20377;-75
2024/04/07 08:23:41;;;;;;;6.28;1.95;;;18.00;58.60;;;;;;4021368;29;20049;-74
2024/04/07 08:25:43;;;;;;;7.18;1.80;;;18.00;58.10;;;;;;4027131;29;20053;-74
2024/04/07 08:27:46;;;;;;;7.10;1.98;;;18.10;57.80;;;;;;4025268;29;20145;-75
2024/04/07 08:29:47;;;;;;;7.15;1.80;;;18.20;57.70;;;;;;4022470;29;20045;-75
2024/04/07 08:31:49;;;;;;;6.38;1.80;;;18.30;57.50;;;;;;4033016;29;20113;-75
2024/04/07 08:33:50;;;;;;;7.10;1.80;;;18.40;57.80;;;;;;4029725;29;20105;-74
2024/04/07 08:35:51;;;;;;;11.25;2.30;;;18.50;57.70;;;;;;4029392;29;20057;-74
2024/04/07 08:37:54;;;;;;;4.72;1.83;;;18.60;60.00;;;;;;4030465;29;20045;-75
2024/04/07 08:39:56;;;;;;;7.53;2.10;;;18.70;62.00;;;;;;4023476;29;20127;-75
2024/04/07 08:42:00;;;;;;;7.90;2.00;;;18.70;61.00;;;;;;4021099;29;20061;-74
2024/04/07 08:44:03;;;;;;;7.20;1.92;;;18.80;59.40;;;;;;4027408;29;20144;-76
2024/04/07 08:46:10;;;;;;;4.68;1.90;;;18.80;60.00;;;;;;4026160;29;20132;-74
2024/04/07 08:48:13;;;;;;;6.25;1.77;;;18.80;59.50;;;;;;4021684;29;20109;-76
2024/04/07 08:50:15;;;;;;;6.60;2.05;;;18.90;60.80;;;;;;4024529;29;20053;-75
2024/04/07 08:52:17;;;;;;;7.07;2.00;;;18.90;60.10;;;;;;4020147;29;20049;-76
2024/04/07 08:54:19;;;;;;;5.97;2.10;;;19.00;59.90;;;;;;4020912;29;20061;-75
2024/04/07 08:56:21;;;;;;;6.38;2.00;;;19.00;60.80;;;;;;4029555;29;20110;-76
2024/04/07 08:58:23;;;;;;;4.95;2.10;;;19.00;63.00;;;;;;4021083;29;20055;-75
2024/04/07 09:00:27;;;;;;;8.38;2.10;;;19.00;63.90;;;;;;4021001;29;20054;-75
2024/04/07 09:02:32;;;;;;;6.10;1.88;;;19.10;62.30;;;;;;4006705;29;20057;-76
2024/04/07 09:04:32;;;;;;;6.40;2.20;;;19.10;60.00;;;;;;4028997;29;20049;-76
2024/04/07 09:06:35;;;;;;;6.47;1.83;;;19.20;58.90;;;;;;4023675;29;20117;-76
2024/04/07 09:08:36;;;;;;;8.00;2.22;;;19.20;57.80;;;;;;4031692;29;20460;-76
2024/04/07 09:10:37;;;;;;;8.05;2.13;;;19.30;57.90;;;;;;4025507;29;20049;-76
2024/04/07 09:12:39;;;;;;;6.25;1.90;;;19.30;57.10;;;;;;4020746;29;20057;-76
2024/04/07 09:14:45;;;;;;;8.35;2.60;;;19.40;56.90;;;;;;4020953;29;20055;-77
2024/04/07 09:16:47;;;;;;;7.68;2.60;;;19.40;59.20;;;;;;4023054;29;20149;-77
2024/04/07 09:18:49;;;;;;;5.32;2.40;;;19.50;64.70;;;;;;4030059;29;20093;-76
2024/04/07 09:20:50;;;;;;;8.38;2.45;;;19.60;65.60;;;;;;4021075;29;20461;-79
2024/04/07 09:22:52;;;;;;;7.32;2.88;;;19.60;64.60;;;;;;4025385;29;20052;-78
2024/04/07 09:24:59;;;;;;;10.13;2.63;;;19.60;64.40;;;;;;4027886;29;20453;-77
2024/04/07 09:27:01;;;;;;;7.32;2.10;;;19.70;64.70;;;;;;4030476;29;20081;-78
2024/04/07 09:29:02;;;;;;;6.28;2.22;;;19.80;63.70;;;;;;4023768;29;20392;-78
2024/04/07 09:31:04;;;;;;;6.20;2.63;;;19.90;61.00;;;;;;4035139;29;20057;-78
2024/04/07 09:33:08;;;;;;;7.35;2.58;;;19.90;58.50;;;;;;4030539;29;20113;-79
2024/04/07 09:35:10;;;;;;;5.57;1.90;;;19.90;56.90;;;;;;4022529;29;20114;-77
2024/04/07 09:37:11;;;;;;;9.10;2.42;;;20.00;55.50;;;;;;4023990;29;20057;-78
2024/04/07 09:39:13;;;;;;;7.47;2.20;;;20.10;55.60;;;;;;4023725;29;20109;-78
2024/04/07 09:41:15;;;;;;;5.30;2.30;;;20.10;55.90;;;;;;4023793;29;20502;-78
2024/04/07 09:43:17;;;;;;;6.13;2.47;;;20.20;55.60;;;;;;4023029;29;20054;-78
2024/04/07 09:45:19;;;;;;;7.47;2.20;;;20.20;53.80;;;;;;4031576;29;20112;-78
2024/04/07 09:47:28;;;;;;;6.45;1.92;;;20.30;53.30;;;;;;4023993;29;20057;-79
2024/04/07 09:49:35;;;;;;;9.10;2.20;;;20.40;53.90;;;;;;4026331;29;20137;-77
2024/04/07 09:51:43;;;;;;;12.23;2.40;;;20.40;52.80;;;;;;4030277;29;20184;-75
2024/04/07 09:53:55;;;;;;;7.63;1.92;;;20.40;52.30;;;;;;4025261;29;20110;-77
2024/04/07 09:55:59;;;;;;;5.80;1.88;;;20.50;53.00;;;;;;4032907;29;20109;-78
2024/04/07 09:58:01;;;;;;;6.65;1.90;;;20.50;53.10;;;;;;4025448;29;20054;-76
2024/04/07 10:00:05;;;;;;;5.15;1.90;;;20.60;52.00;;;;;;4023577;29;20053;-77
2024/04/07 10:02:06;;;;;;;10.43;1.73;;;20.60;52.20;;;;;;4027877;29;20101;-76
2024/04/07 10:04:10;;;;;;;7.53;1.80;;;20.60;50.20;;;;;;4024914;29;20140;-78
2024/04/07 10:06:12;;;;;;;7.00;1.80;;;20.60;50.60;;;;;;4026119;29;20053;-77
2024/04/07 10:08:14;;;;;;;5.63;2.15;;;20.60;51.00;;;;;;4023574;29;20054;-77
2024/04/07 10:10:21;;;;;;;6.88;2.42;;;20.70;51.10;;;;;;4023667;29;20105;-78
2024/04/07 10:12:28;;;;;;;9.18;2.30;;;20.60;50.00;;;;;;4028556;29;20494;-77
2024/04/07 10:14:36;;;;;;;8.80;2.10;;;20.70;51.00;;;;;;4023987;29;20066;-76
2024/04/07 10:16:39;;;;;;;5.72;1.80;;;20.80;52.00;;;;;;4026516;29;20100;-77
2024/04/07 10:18:41;;;;;;;6.25;2.00;;;20.80;52.10;;;;;;4036480;29;20560;-77
2024/04/07 10:20:44;;;;;;;7.88;2.10;;;20.90;51.70;;;;;;4036739;29;20041;-76
2024/04/07 10:22:46;;;;;;;9.95;2.33;;;21.00;51.50;;;;;;4028148;29;20049;-77
2024/04/07 10:24:50;;;;;;;8.75;1.95;;;21.10;50.20;;;;;;4022541;29;20136;-76
2024/04/07 10:26:52;;;;;;;8.73;2.15;;;21.10;50.70;;;;;;4028145;29;20160;-76
2024/04/07 10:28:57;;;;;;;7.18;1.90;;;21.20;50.10;;;;;;4022713;29;20423;-77
2024/04/07 10:30:58;;;;;;;7.65;2.08;;;21.20;49.70;;;;;;4006651;29;20058;-75
2024/04/07 10:33:03;;;;;;;6.03;2.22;;;21.30;50.30;;;;;;4025725;29;20057;-75
2024/04/07 10:35:07;;;;;;;7.65;2.10;;;21.40;50.40;;;;;;4020575;29;20061;-77
2024/04/07 10:37:11;;;;;;;8.15;2.22;;;21.40;49.40;;;;;;4033586;29;20116;-76